sensor_id;sensor_type;location;lat;lon;timestamp;P1;durP1;ratioP1;P2;durP2;ratioP2
16193;SDS011;8204;53.582;10.080;2023-07-28T00:01:14;3.67;;;3.40;;
16193;SDS011;8204;53.582;10.080;2023-07-28T00:03:39;4.03;;;3.73;;
16193;SDS011;8204;53.582;10.080;2023-07-28T00:06:05;4.40;;;4.10;;
16193;SDS011;8204;53.582;10.080;2023-07-28T00:08:31;4.43;;;4.03;;
16193;SDS011;8204;53.582;10.080;2023-07-28T00:10:56;3.33;;;3.13;;
16193;SDS011;8204;53.582;10.080;2023-07-28T00:13:23;3.30;;;3.10;;
16193;SDS011;8204;53.582;10.080;2023-07-28T00:15:48;3.53;;;3.33;;
16193;SDS011;8204;53.582;10.080;2023-07-28T00:18:13;3.80;;;3.60;;
16193;SDS011;8204;53.582;10.080;2023-07-28T00:20:39;3.67;;;3.47;;
16193;SDS011;8204;53.582;10.080;2023-07-28T00:23:04;4.20;;;3.90;;
16193;SDS011;8204;53.582;10.080;2023-07-28T00:25:36;3.67;;;3.30;;
16193;SDS011;8204;53.582;10.080;2023-07-28T00:28:01;3.83;;;3.57;;
16193;SDS011;8204;53.582;10.080;2023-07-28T00:30:27;3.73;;;3.53;;
16193;SDS011;8204;53.582;10.080;2023-07-28T00:32:52;3.63;;;3.43;;
16193;SDS011;8204;53.582;10.080;2023-07-28T00:35:17;3.57;;;3.37;;
16193;SDS011;8204;53.582;10.080;2023-07-28T00:37:44;3.47;;;3.27;;
16193;SDS011;8204;53.582;10.080;2023-07-28T00:40:10;3.60;;;3.40;;
16193;SDS011;8204;53.582;10.080;2023-07-28T00:42:36;3.90;;;3.70;;
16193;SDS011;8204;53.582;10.080;2023-07-28T00:45:02;4.00;;;3.73;;
16193;SDS011;8204;53.582;10.080;2023-07-28T00:47:27;4.07;;;3.77;;
16193;SDS011;8204;53.582;10.080;2023-07-28T00:49:53;4.17;;;3.87;;
16193;SDS011;8204;53.582;10.080;2023-07-28T00:52:19;4.23;;;3.93;;
16193;SDS011;8204;53.582;10.080;2023-07-28T00:54:44;3.53;;;3.33;;
16193;SDS011;8204;53.582;10.080;2023-07-28T00:57:10;4.10;;;3.80;;
16193;SDS011;8204;53.582;10.080;2023-07-28T00:59:35;3.67;;;3.47;;
16193;SDS011;8204;53.582;10.080;2023-07-28T01:02:01;3.70;;;3.50;;
16193;SDS011;8204;53.582;10.080;2023-07-28T01:04:28;3.40;;;2.97;;
16193;SDS011;8204;53.582;10.080;2023-07-28T01:09:39;3.23;;;3.00;;
16193;SDS011;8204;53.582;10.080;2023-07-28T01:12:08;3.30;;;3.10;;
16193;SDS011;8204;53.582;10.080;2023-07-28T01:14:36;3.37;;;3.17;;
16193;SDS011;8204;53.582;10.080;2023-07-28T01:17:02;2.70;;;2.60;;
16193;SDS011;8204;53.582;10.080;2023-07-28T01:19:28;2.90;;;2.70;;
16193;SDS011;8204;53.582;10.080;2023-07-28T01:21:57;2.47;;;2.30;;
16193;SDS011;8204;53.582;10.080;2023-07-28T01:24:42;3.00;;;2.80;;
16193;SDS011;8204;53.582;10.080;2023-07-28T01:27:16;3.17;;;2.97;;
16193;SDS011;8204;53.582;10.080;2023-07-28T01:29:42;3.63;;;3.33;;
16193;SDS011;8204;53.582;10.080;2023-07-28T01:32:10;3.33;;;3.13;;
16193;SDS011;8204;53.582;10.080;2023-07-28T01:34:36;3.43;;;3.23;;
16193;SDS011;8204;53.582;10.080;2023-07-28T01:37:02;3.37;;;3.07;;
16193;SDS011;8204;53.582;10.080;2023-07-28T01:39:27;3.63;;;3.30;;
16193;SDS011;8204;53.582;10.080;2023-07-28T01:41:52;3.10;;;2.90;;
16193;SDS011;8204;53.582;10.080;2023-07-28T01:44:18;2.73;;;2.60;;
16193;SDS011;8204;53.582;10.080;2023-07-28T01:46:43;3.13;;;2.93;;
16193;SDS011;8204;53.582;10.080;2023-07-28T01:49:09;3.60;;;3.40;;
16193;SDS011;8204;53.582;10.080;2023-07-28T01:51:34;2.57;;;2.47;;
16193;SDS011;8204;53.582;10.080;2023-07-28T01:54:00;2.90;;;2.70;;
16193;SDS011;8204;53.582;10.080;2023-07-28T01:56:25;3.23;;;3.03;;
16193;SDS011;8204;53.582;10.080;2023-07-28T01:58:50;2.70;;;2.60;;
16193;SDS011;8204;53.582;10.080;2023-07-28T02:01:16;2.40;;;2.30;;
16193;SDS011;8204;53.582;10.080;2023-07-28T02:03:41;2.83;;;2.63;;
16193;SDS011;8204;53.582;10.080;2023-07-28T02:06:07;2.63;;;2.43;;
16193;SDS011;8204;53.582;10.080;2023-07-28T02:08:32;2.80;;;2.60;;
16193;SDS011;8204;53.582;10.080;2023-07-28T02:10:58;2.50;;;2.40;;
16193;SDS011;8204;53.582;10.080;2023-07-28T02:13:23;2.47;;;2.27;;
16193;SDS011;8204;53.582;10.080;2023-07-28T02:15:49;2.60;;;2.50;;
16193;SDS011;8204;53.582;10.080;2023-07-28T02:18:14;2.20;;;2.10;;
16193;SDS011;8204;53.582;10.080;2023-07-28T02:20:39;2.60;;;2.43;;
16193;SDS011;8204;53.582;10.080;2023-07-28T02:23:05;2.10;;;2.00;;
16193;SDS011;8204;53.582;10.080;2023-07-28T02:25:30;2.23;;;2.13;;
16193;SDS011;8204;53.582;10.080;2023-07-28T02:27:56;3.33;;;2.40;;
16193;SDS011;8204;53.582;10.080;2023-07-28T02:30:23;3.27;;;3.03;;
16193;SDS011;8204;53.582;10.080;2023-07-28T02:32:48;3.10;;;2.90;;
16193;SDS011;8204;53.582;10.080;2023-07-28T02:35:13;3.30;;;3.10;;
16193;SDS011;8204;53.582;10.080;2023-07-28T02:37:39;3.40;;;3.20;;
16193;SDS011;8204;53.582;10.080;2023-07-28T02:40:05;3.73;;;3.50;;
16193;SDS011;8204;53.582;10.080;2023-07-28T02:42:31;3.70;;;3.40;;
16193;SDS011;8204;53.582;10.080;2023-07-28T02:44:58;5.00;;;4.60;;
16193;SDS011;8204;53.582;10.080;2023-07-28T02:47:24;4.53;;;4.10;;
16193;SDS011;8204;53.582;10.080;2023-07-28T02:49:49;4.50;;;4.20;;
16193;SDS011;8204;53.582;10.080;2023-07-28T02:52:15;3.47;;;3.27;;
16193;SDS011;8204;53.582;10.080;2023-07-28T02:54:40;3.63;;;3.33;;
16193;SDS011;8204;53.582;10.080;2023-07-28T02:57:06;3.30;;;3.10;;
16193;SDS011;8204;53.582;10.080;2023-07-28T02:59:31;3.30;;;3.10;;
16193;SDS011;8204;53.582;10.080;2023-07-28T03:01:56;3.53;;;3.33;;
16193;SDS011;8204;53.582;10.080;2023-07-28T03:04:22;3.57;;;3.37;;
16193;SDS011;8204;53.582;10.080;2023-07-28T03:06:47;4.40;;;4.10;;
16193;SDS011;8204;53.582;10.080;2023-07-28T03:09:13;5.13;;;4.77;;
16193;SDS011;8204;53.582;10.080;2023-07-28T03:11:41;5.40;;;5.00;;
16193;SDS011;8204;53.582;10.080;2023-07-28T03:14:09;5.23;;;4.93;;
16193;SDS011;8204;53.582;10.080;2023-07-28T03:16:35;4.63;;;4.33;;
16193;SDS011;8204;53.582;10.080;2023-07-28T03:19:00;4.57;;;3.67;;
16193;SDS011;8204;53.582;10.080;2023-07-28T03:21:25;3.50;;;3.30;;
16193;SDS011;8204;53.582;10.080;2023-07-28T03:23:51;3.53;;;3.33;;
16193;SDS011;8204;53.582;10.080;2023-07-28T03:26:17;4.93;;;4.63;;
16193;SDS011;8204;53.582;10.080;2023-07-28T03:28:42;3.10;;;2.90;;
16193;SDS011;8204;53.582;10.080;2023-07-28T03:31:08;2.83;;;2.70;;
16193;SDS011;8204;53.582;10.080;2023-07-28T03:33:33;3.63;;;3.43;;
16193;SDS011;8204;53.582;10.080;2023-07-28T03:35:59;2.93;;;2.73;;
16193;SDS011;8204;53.582;10.080;2023-07-28T03:38:24;3.50;;;3.30;;
16193;SDS011;8204;53.582;10.080;2023-07-28T03:40:50;2.90;;;2.70;;
16193;SDS011;8204;53.582;10.080;2023-07-28T03:43:15;3.17;;;2.93;;
16193;SDS011;8204;53.582;10.080;2023-07-28T03:45:41;2.67;;;2.47;;
16193;SDS011;8204;53.582;10.080;2023-07-28T03:48:07;2.57;;;2.37;;
16193;SDS011;8204;53.582;10.080;2023-07-28T03:50:32;3.00;;;2.43;;
16193;SDS011;8204;53.582;10.080;2023-07-28T03:52:58;3.10;;;2.90;;
16193;SDS011;8204;53.582;10.080;2023-07-28T03:55:24;2.67;;;2.47;;
16193;SDS011;8204;53.582;10.080;2023-07-28T03:57:49;2.77;;;2.33;;
16193;SDS011;8204;53.582;10.080;2023-07-28T04:00:15;3.13;;;2.33;;
16193;SDS011;8204;53.582;10.080;2023-07-28T04:02:41;2.43;;;2.33;;
16193;SDS011;8204;53.582;10.080;2023-07-28T04:05:06;2.40;;;2.30;;
16193;SDS011;8204;53.582;10.080;2023-07-28T04:07:32;2.57;;;2.43;;
16193;SDS011;8204;53.582;10.080;2023-07-28T04:09:57;2.13;;;2.03;;
16193;SDS011;8204;53.582;10.080;2023-07-28T04:12:23;2.83;;;2.70;;
16193;SDS011;8204;53.582;10.080;2023-07-28T04:14:49;3.97;;;3.07;;
16193;SDS011;8204;53.582;10.080;2023-07-28T04:17:14;2.77;;;2.67;;
16193;SDS011;8204;53.582;10.080;2023-07-28T04:19:39;2.97;;;2.77;;
16193;SDS011;8204;53.582;10.080;2023-07-28T04:22:05;2.93;;;2.77;;
16193;SDS011;8204;53.582;10.080;2023-07-28T04:24:31;2.10;;;2.00;;
16193;SDS011;8204;53.582;10.080;2023-07-28T04:26:57;2.70;;;2.60;;
16193;SDS011;8204;53.582;10.080;2023-07-28T04:29:22;2.63;;;2.43;;
16193;SDS011;8204;53.582;10.080;2023-07-28T04:31:48;3.47;;;3.20;;
16193;SDS011;8204;53.582;10.080;2023-07-28T04:34:13;4.10;;;3.30;;
16193;SDS011;8204;53.582;10.080;2023-07-28T04:36:39;3.70;;;3.43;;
16193;SDS011;8204;53.582;10.080;2023-07-28T04:39:04;3.30;;;3.00;;
16193;SDS011;8204;53.582;10.080;2023-07-28T04:41:30;3.27;;;3.07;;
16193;SDS011;8204;53.582;10.080;2023-07-28T04:43:55;6.30;;;3.70;;
16193;SDS011;8204;53.582;10.080;2023-07-28T04:46:22;3.60;;;3.30;;
16193;SDS011;8204;53.582;10.080;2023-07-28T04:48:47;6.50;;;4.23;;
16193;SDS011;8204;53.582;10.080;2023-07-28T04:51:13;3.67;;;3.47;;
16193;SDS011;8204;53.582;10.080;2023-07-28T04:53:38;3.97;;;3.67;;
16193;SDS011;8204;53.582;10.080;2023-07-28T04:56:04;4.40;;;4.07;;
16193;SDS011;8204;53.582;10.080;2023-07-28T04:58:29;3.40;;;3.20;;
16193;SDS011;8204;53.582;10.080;2023-07-28T05:00:55;4.50;;;4.20;;
16193;SDS011;8204;53.582;10.080;2023-07-28T05:03:20;4.43;;;4.13;;
16193;SDS011;8204;53.582;10.080;2023-07-28T05:05:46;5.93;;;4.10;;
16193;SDS011;8204;53.582;10.080;2023-07-28T05:08:12;4.20;;;3.90;;
16193;SDS011;8204;53.582;10.080;2023-07-28T05:10:38;4.67;;;4.37;;
16193;SDS011;8204;53.582;10.080;2023-07-28T05:13:03;4.37;;;4.07;;
16193;SDS011;8204;53.582;10.080;2023-07-28T05:15:30;3.97;;;3.73;;
16193;SDS011;8204;53.582;10.080;2023-07-28T05:17:55;5.57;;;4.40;;
16193;SDS011;8204;53.582;10.080;2023-07-28T05:20:21;4.53;;;4.17;;
16193;SDS011;8204;53.582;10.080;2023-07-28T05:22:47;4.63;;;4.20;;
16193;SDS011;8204;53.582;10.080;2023-07-28T05:25:13;5.80;;;4.70;;
16193;SDS011;8204;53.582;10.080;2023-07-28T05:27:38;4.47;;;4.17;;
16193;SDS011;8204;53.582;10.080;2023-07-28T05:30:04;4.00;;;3.80;;
16193;SDS011;8204;53.582;10.080;2023-07-28T05:32:31;4.50;;;4.20;;
16193;SDS011;8204;53.582;10.080;2023-07-28T05:34:56;4.47;;;4.17;;
16193;SDS011;8204;53.582;10.080;2023-07-28T05:37:21;4.00;;;3.80;;
16193;SDS011;8204;53.582;10.080;2023-07-28T05:39:47;4.30;;;4.00;;
16193;SDS011;8204;53.582;10.080;2023-07-28T05:42:12;3.90;;;3.67;;
16193;SDS011;8204;53.582;10.080;2023-07-28T05:44:38;4.43;;;4.03;;
16193;SDS011;8204;53.582;10.080;2023-07-28T05:47:03;4.30;;;4.00;;
16193;SDS011;8204;53.582;10.080;2023-07-28T05:49:30;4.57;;;4.27;;
16193;SDS011;8204;53.582;10.080;2023-07-28T05:51:56;4.50;;;4.20;;
16193;SDS011;8204;53.582;10.080;2023-07-28T05:54:24;4.80;;;4.50;;
16193;SDS011;8204;53.582;10.080;2023-07-28T05:56:50;3.60;;;3.30;;
16193;SDS011;8204;53.582;10.080;2023-07-28T05:59:15;4.13;;;3.83;;
16193;SDS011;8204;53.582;10.080;2023-07-28T06:01:41;3.97;;;3.67;;
16193;SDS011;8204;53.582;10.080;2023-07-28T06:04:06;4.77;;;4.37;;
16193;SDS011;8204;53.582;10.080;2023-07-28T06:06:32;6.30;;;3.93;;
16193;SDS011;8204;53.582;10.080;2023-07-28T06:08:57;3.83;;;3.63;;
16193;SDS011;8204;53.582;10.080;2023-07-28T06:11:22;3.90;;;3.63;;
16193;SDS011;8204;53.582;10.080;2023-07-28T06:13:48;4.77;;;4.37;;
16193;SDS011;8204;53.582;10.080;2023-07-28T06:16:14;3.70;;;3.47;;
16193;SDS011;8204;53.582;10.080;2023-07-28T06:18:40;4.20;;;3.90;;
16193;SDS011;8204;53.582;10.080;2023-07-28T06:21:05;4.10;;;3.80;;
16193;SDS011;8204;53.582;10.080;2023-07-28T06:23:31;3.70;;;3.50;;
16193;SDS011;8204;53.582;10.080;2023-07-28T06:25:56;4.63;;;4.33;;
16193;SDS011;8204;53.582;10.080;2023-07-28T06:28:22;5.00;;;4.70;;
16193;SDS011;8204;53.582;10.080;2023-07-28T06:30:53;4.53;;;4.23;;
16193;SDS011;8204;53.582;10.080;2023-07-28T06:33:20;4.50;;;4.20;;
16193;SDS011;8204;53.582;10.080;2023-07-28T06:35:45;4.57;;;4.27;;
16193;SDS011;8204;53.582;10.080;2023-07-28T06:38:10;4.03;;;3.83;;
16193;SDS011;8204;53.582;10.080;2023-07-28T06:40:36;3.70;;;3.50;;
16193;SDS011;8204;53.582;10.080;2023-07-28T06:43:01;4.27;;;3.97;;
16193;SDS011;8204;53.582;10.080;2023-07-28T06:45:28;4.17;;;3.87;;
16193;SDS011;8204;53.582;10.080;2023-07-28T06:47:54;4.90;;;4.60;;
16193;SDS011;8204;53.582;10.080;2023-07-28T06:50:20;4.37;;;4.07;;
16193;SDS011;8204;53.582;10.080;2023-07-28T06:52:45;3.93;;;3.73;;
16193;SDS011;8204;53.582;10.080;2023-07-28T06:55:16;4.17;;;3.87;;
16193;SDS011;8204;53.582;10.080;2023-07-28T06:57:42;4.47;;;4.07;;
16193;SDS011;8204;53.582;10.080;2023-07-28T07:00:08;4.57;;;4.17;;
16193;SDS011;8204;53.582;10.080;2023-07-28T07:02:34;4.63;;;4.33;;
16193;SDS011;8204;53.582;10.080;2023-07-28T07:05:01;3.97;;;3.77;;
16193;SDS011;8204;53.582;10.080;2023-07-28T07:07:27;3.57;;;3.37;;
16193;SDS011;8204;53.582;10.080;2023-07-28T07:09:53;6.40;;;4.60;;
16193;SDS011;8204;53.582;10.080;2023-07-28T07:12:19;4.43;;;4.13;;
16193;SDS011;8204;53.582;10.080;2023-07-28T07:14:46;4.00;;;3.70;;
16193;SDS011;8204;53.582;10.080;2023-07-28T07:17:11;5.77;;;3.70;;
16193;SDS011;8204;53.582;10.080;2023-07-28T07:19:37;3.60;;;3.37;;
16193;SDS011;8204;53.582;10.080;2023-07-28T07:22:03;3.33;;;3.13;;
16193;SDS011;8204;53.582;10.080;2023-07-28T07:24:28;3.37;;;3.17;;
16193;SDS011;8204;53.582;10.080;2023-07-28T07:26:55;3.47;;;3.27;;
16193;SDS011;8204;53.582;10.080;2023-07-28T07:29:20;3.73;;;3.53;;
16193;SDS011;8204;53.582;10.080;2023-07-28T07:31:46;3.77;;;3.57;;
16193;SDS011;8204;53.582;10.080;2023-07-28T07:34:11;3.07;;;2.93;;
16193;SDS011;8204;53.582;10.080;2023-07-28T07:36:37;3.33;;;3.10;;
16193;SDS011;8204;53.582;10.080;2023-07-28T07:39:02;3.70;;;3.50;;
16193;SDS011;8204;53.582;10.080;2023-07-28T07:41:30;3.73;;;3.43;;
16193;SDS011;8204;53.582;10.080;2023-07-28T07:43:56;3.53;;;3.33;;
16193;SDS011;8204;53.582;10.080;2023-07-28T07:46:22;3.00;;;2.80;;
16193;SDS011;8204;53.582;10.080;2023-07-28T07:48:49;3.67;;;3.37;;
16193;SDS011;8204;53.582;10.080;2023-07-28T07:51:15;2.57;;;2.47;;
16193;SDS011;8204;53.582;10.080;2023-07-28T07:53:40;2.80;;;2.63;;
16193;SDS011;8204;53.582;10.080;2023-07-28T07:56:06;2.87;;;2.67;;
16193;SDS011;8204;53.582;10.080;2023-07-28T07:58:33;2.13;;;2.00;;
16193;SDS011;8204;53.582;10.080;2023-07-28T08:00:58;2.50;;;2.30;;
16193;SDS011;8204;53.582;10.080;2023-07-28T08:03:24;3.10;;;2.90;;
16193;SDS011;8204;53.582;10.080;2023-07-28T08:05:50;2.63;;;2.47;;
16193;SDS011;8204;53.582;10.080;2023-07-28T08:08:16;2.57;;;2.47;;
16193;SDS011;8204;53.582;10.080;2023-07-28T08:10:43;5.23;;;4.27;;
16193;SDS011;8204;53.582;10.080;2023-07-28T08:13:09;3.53;;;3.23;;
16193;SDS011;8204;53.582;10.080;2023-07-28T08:15:34;3.57;;;3.00;;
16193;SDS011;8204;53.582;10.080;2023-07-28T08:18:00;2.43;;;2.33;;
16193;SDS011;8204;53.582;10.080;2023-07-28T08:20:26;2.30;;;2.20;;
16193;SDS011;8204;53.582;10.080;2023-07-28T08:22:52;2.60;;;2.50;;
16193;SDS011;8204;53.582;10.080;2023-07-28T08:25:17;2.10;;;2.00;;
16193;SDS011;8204;53.582;10.080;2023-07-28T08:27:43;2.70;;;2.50;;
16193;SDS011;8204;53.582;10.080;2023-07-28T08:30:09;2.70;;;2.50;;
16193;SDS011;8204;53.582;10.080;2023-07-28T08:32:35;2.53;;;2.33;;
16193;SDS011;8204;53.582;10.080;2023-07-28T08:35:01;3.17;;;2.97;;
16193;SDS011;8204;53.582;10.080;2023-07-28T08:37:27;3.90;;;3.37;;
16193;SDS011;8204;53.582;10.080;2023-07-28T08:39:53;3.27;;;3.07;;
16193;SDS011;8204;53.582;10.080;2023-07-28T08:42:20;3.20;;;2.60;;
16193;SDS011;8204;53.582;10.080;2023-07-28T08:44:46;2.90;;;2.70;;
16193;SDS011;8204;53.582;10.080;2023-07-28T08:47:12;3.43;;;3.23;;
16193;SDS011;8204;53.582;10.080;2023-07-28T08:49:37;4.70;;;3.10;;
16193;SDS011;8204;53.582;10.080;2023-07-28T08:52:03;3.03;;;2.80;;
16193;SDS011;8204;53.582;10.080;2023-07-28T08:54:29;3.50;;;3.30;;
16193;SDS011;8204;53.582;10.080;2023-07-28T08:56:59;2.93;;;2.83;;
16193;SDS011;8204;53.582;10.080;2023-07-28T08:59:25;2.70;;;2.60;;
16193;SDS011;8204;53.582;10.080;2023-07-28T09:01:54;3.00;;;2.80;;
16193;SDS011;8204;53.582;10.080;2023-07-28T09:04:21;2.90;;;2.70;;
16193;SDS011;8204;53.582;10.080;2023-07-28T09:06:48;2.40;;;2.30;;
16193;SDS011;8204;53.582;10.080;2023-07-28T09:09:15;3.43;;;2.83;;
16193;SDS011;8204;53.582;10.080;2023-07-28T09:11:45;3.03;;;2.83;;
16193;SDS011;8204;53.582;10.080;2023-07-28T09:14:18;4.00;;;2.87;;
16193;SDS011;8204;53.582;10.080;2023-07-28T09:16:47;3.20;;;2.90;;
16193;SDS011;8204;53.582;10.080;2023-07-28T09:19:13;2.90;;;2.70;;
16193;SDS011;8204;53.582;10.080;2023-07-28T09:21:40;2.73;;;2.53;;
16193;SDS011;8204;53.582;10.080;2023-07-28T09:24:12;3.10;;;2.80;;
16193;SDS011;8204;53.582;10.080;2023-07-28T09:26:45;4.83;;;2.87;;
16193;SDS011;8204;53.582;10.080;2023-07-28T09:29:16;3.47;;;3.17;;
16193;SDS011;8204;53.582;10.080;2023-07-28T09:31:46;2.87;;;2.67;;
16193;SDS011;8204;53.582;10.080;2023-07-28T09:34:22;3.60;;;3.30;;
16193;SDS011;8204;53.582;10.080;2023-07-28T09:36:53;2.97;;;2.77;;
16193;SDS011;8204;53.582;10.080;2023-07-28T09:39:20;2.63;;;2.53;;
16193;SDS011;8204;53.582;10.080;2023-07-28T09:41:46;3.07;;;2.87;;
16193;SDS011;8204;53.582;10.080;2023-07-28T09:44:12;2.93;;;2.73;;
16193;SDS011;8204;53.582;10.080;2023-07-28T09:46:42;2.83;;;2.67;;
16193;SDS011;8204;53.582;10.080;2023-07-28T09:49:15;2.83;;;2.50;;
16193;SDS011;8204;53.582;10.080;2023-07-28T09:51:45;2.20;;;2.03;;
16193;SDS011;8204;53.582;10.080;2023-07-28T09:54:18;3.47;;;3.20;;
16193;SDS011;8204;53.582;10.080;2023-07-28T09:56:54;3.00;;;2.80;;
16193;SDS011;8204;53.582;10.080;2023-07-28T09:59:35;3.27;;;3.00;;
16193;SDS011;8204;53.582;10.080;2023-07-28T10:02:04;3.23;;;2.90;;
16193;SDS011;8204;53.582;10.080;2023-07-28T10:04:32;2.67;;;2.47;;
16193;SDS011;8204;53.582;10.080;2023-07-28T10:06:58;2.93;;;2.73;;
16193;SDS011;8204;53.582;10.080;2023-07-28T10:09:25;2.63;;;2.53;;
16193;SDS011;8204;53.582;10.080;2023-07-28T10:11:52;2.80;;;2.60;;
16193;SDS011;8204;53.582;10.080;2023-07-28T10:14:27;2.80;;;2.60;;
16193;SDS011;8204;53.582;10.080;2023-07-28T10:16:54;2.70;;;2.50;;
16193;SDS011;8204;53.582;10.080;2023-07-28T10:19:20;3.00;;;2.80;;
16193;SDS011;8204;53.582;10.080;2023-07-28T10:21:46;2.80;;;2.60;;
16193;SDS011;8204;53.582;10.080;2023-07-28T10:24:12;3.17;;;2.97;;
16193;SDS011;8204;53.582;10.080;2023-07-28T10:26:38;3.20;;;2.77;;
16193;SDS011;8204;53.582;10.080;2023-07-28T10:29:12;2.80;;;2.63;;
16193;SDS011;8204;53.582;10.080;2023-07-28T10:31:54;2.70;;;2.50;;
16193;SDS011;8204;53.582;10.080;2023-07-28T10:34:24;3.30;;;3.10;;
16193;SDS011;8204;53.582;10.080;2023-07-28T10:36:56;3.07;;;2.77;;
16193;SDS011;8204;53.582;10.080;2023-07-28T10:39:23;2.57;;;2.43;;
16193;SDS011;8204;53.582;10.080;2023-07-28T10:42:00;2.53;;;2.37;;
16193;SDS011;8204;53.582;10.080;2023-07-28T10:44:36;2.30;;;2.20;;
16193;SDS011;8204;53.582;10.080;2023-07-28T10:47:02;2.47;;;2.37;;
16193;SDS011;8204;53.582;10.080;2023-07-28T10:49:33;2.17;;;2.07;;
16193;SDS011;8204;53.582;10.080;2023-07-28T10:51:59;2.40;;;2.30;;
16193;SDS011;8204;53.582;10.080;2023-07-28T10:54:25;2.50;;;2.30;;
16193;SDS011;8204;53.582;10.080;2023-07-28T10:56:50;2.33;;;2.23;;
16193;SDS011;8204;53.582;10.080;2023-07-28T10:59:16;2.80;;;2.60;;
16193;SDS011;8204;53.582;10.080;2023-07-28T11:01:41;2.07;;;1.97;;
16193;SDS011;8204;53.582;10.080;2023-07-28T11:06:43;3.20;;;3.00;;
16193;SDS011;8204;53.582;10.080;2023-07-28T11:09:14;2.40;;;2.30;;
16193;SDS011;8204;53.582;10.080;2023-07-28T11:11:42;2.70;;;2.50;;
16193;SDS011;8204;53.582;10.080;2023-07-28T11:14:08;2.80;;;2.60;;
16193;SDS011;8204;53.582;10.080;2023-07-28T11:16:37;2.80;;;2.70;;
16193;SDS011;8204;53.582;10.080;2023-07-28T11:19:08;2.60;;;2.50;;
16193;SDS011;8204;53.582;10.080;2023-07-28T11:21:38;2.97;;;2.50;;
16193;SDS011;8204;53.582;10.080;2023-07-28T11:24:04;2.83;;;2.63;;
16193;SDS011;8204;53.582;10.080;2023-07-28T11:26:31;4.57;;;4.27;;
16193;SDS011;8204;53.582;10.080;2023-07-28T11:28:59;3.73;;;3.53;;
16193;SDS011;8204;53.582;10.080;2023-07-28T11:31:25;3.00;;;2.80;;
16193;SDS011;8204;53.582;10.080;2023-07-28T11:33:52;3.70;;;2.97;;
16193;SDS011;8204;53.582;10.080;2023-07-28T11:36:22;3.03;;;2.83;;
16193;SDS011;8204;53.582;10.080;2023-07-28T11:38:48;2.47;;;2.27;;
16193;SDS011;8204;53.582;10.080;2023-07-28T11:41:14;2.93;;;2.73;;
16193;SDS011;8204;53.582;10.080;2023-07-28T11:43:40;6.10;;;3.33;;
16193;SDS011;8204;53.582;10.080;2023-07-28T11:49:16;3.23;;;3.03;;
16193;SDS011;8204;53.582;10.080;2023-07-28T11:51:51;2.43;;;2.33;;
16193;SDS011;8204;53.582;10.080;2023-07-28T11:54:24;3.07;;;2.87;;
16193;SDS011;8204;53.582;10.080;2023-07-28T11:56:51;2.40;;;2.30;;
16193;SDS011;8204;53.582;10.080;2023-07-28T11:59:19;2.77;;;2.57;;
16193;SDS011;8204;53.582;10.080;2023-07-28T12:01:56;2.63;;;2.53;;
16193;SDS011;8204;53.582;10.080;2023-07-28T12:04:27;2.40;;;2.30;;
16193;SDS011;8204;53.582;10.080;2023-07-28T12:07:00;3.70;;;2.70;;
16193;SDS011;8204;53.582;10.080;2023-07-28T12:09:26;3.20;;;3.00;;
16193;SDS011;8204;53.582;10.080;2023-07-28T12:11:52;3.40;;;3.07;;
16193;SDS011;8204;53.582;10.080;2023-07-28T12:14:29;2.30;;;2.20;;
16193;SDS011;8204;53.582;10.080;2023-07-28T12:16:56;2.33;;;2.23;;
16193;SDS011;8204;53.582;10.080;2023-07-28T12:19:21;3.50;;;3.20;;
16193;SDS011;8204;53.582;10.080;2023-07-28T12:21:47;2.57;;;2.47;;
16193;SDS011;8204;53.582;10.080;2023-07-28T12:24:13;2.60;;;2.40;;
16193;SDS011;8204;53.582;10.080;2023-07-28T12:26:38;2.67;;;2.50;;
16193;SDS011;8204;53.582;10.080;2023-07-28T12:29:03;2.63;;;2.53;;
16193;SDS011;8204;53.582;10.080;2023-07-28T12:31:29;2.50;;;2.33;;
16193;SDS011;8204;53.582;10.080;2023-07-28T12:33:55;2.40;;;2.30;;
16193;SDS011;8204;53.582;10.080;2023-07-28T12:36:21;2.87;;;2.67;;
16193;SDS011;8204;53.582;10.080;2023-07-28T12:38:47;2.97;;;2.77;;
16193;SDS011;8204;53.582;10.080;2023-07-28T12:41:13;2.90;;;2.53;;
16193;SDS011;8204;53.582;10.080;2023-07-28T12:43:39;3.33;;;2.47;;
16193;SDS011;8204;53.582;10.080;2023-07-28T12:46:05;2.57;;;2.47;;
16193;SDS011;8204;53.582;10.080;2023-07-28T12:48:30;2.23;;;2.13;;
16193;SDS011;8204;53.582;10.080;2023-07-28T12:50:56;2.57;;;2.47;;
16193;SDS011;8204;53.582;10.080;2023-07-28T12:53:22;1.90;;;1.80;;
16193;SDS011;8204;53.582;10.080;2023-07-28T12:55:48;1.93;;;1.83;;
16193;SDS011;8204;53.582;10.080;2023-07-28T12:58:14;2.73;;;2.63;;
16193;SDS011;8204;53.582;10.080;2023-07-28T13:00:39;2.40;;;2.30;;
16193;SDS011;8204;53.582;10.080;2023-07-28T13:03:06;3.50;;;2.03;;
16193;SDS011;8204;53.582;10.080;2023-07-28T13:05:32;12.40;;;2.60;;
16193;SDS011;8204;53.582;10.080;2023-07-28T13:07:58;2.00;;;1.90;;
16193;SDS011;8204;53.582;10.080;2023-07-28T13:10:23;1.80;;;1.70;;
16193;SDS011;8204;53.582;10.080;2023-07-28T13:12:49;2.00;;;1.90;;
16193;SDS011;8204;53.582;10.080;2023-07-28T13:15:14;1.80;;;1.70;;
16193;SDS011;8204;53.582;10.080;2023-07-28T13:17:40;2.00;;;1.90;;
16193;SDS011;8204;53.582;10.080;2023-07-28T13:20:05;1.87;;;1.77;;
16193;SDS011;8204;53.582;10.080;2023-07-28T13:22:32;2.10;;;2.00;;
16193;SDS011;8204;53.582;10.080;2023-07-28T13:24:58;1.90;;;1.80;;
16193;SDS011;8204;53.582;10.080;2023-07-28T13:27:23;2.43;;;2.33;;
16193;SDS011;8204;53.582;10.080;2023-07-28T13:29:49;2.17;;;1.97;;
16193;SDS011;8204;53.582;10.080;2023-07-28T13:32:18;4.53;;;2.20;;
16193;SDS011;8204;53.582;10.080;2023-07-28T13:34:48;2.70;;;2.50;;
16193;SDS011;8204;53.582;10.080;2023-07-28T13:37:13;2.40;;;2.27;;
16193;SDS011;8204;53.582;10.080;2023-07-28T13:39:39;2.00;;;1.80;;
16193;SDS011;8204;53.582;10.080;2023-07-28T13:42:07;1.97;;;1.87;;
16193;SDS011;8204;53.582;10.080;2023-07-28T13:44:33;2.33;;;2.23;;
16193;SDS011;8204;53.582;10.080;2023-07-28T13:46:58;2.43;;;2.27;;
16193;SDS011;8204;53.582;10.080;2023-07-28T13:49:24;2.37;;;2.27;;
16193;SDS011;8204;53.582;10.080;2023-07-28T13:51:50;1.47;;;1.47;;
16193;SDS011;8204;53.582;10.080;2023-07-28T13:54:16;4.90;;;1.90;;
16193;SDS011;8204;53.582;10.080;2023-07-28T13:56:42;2.47;;;2.27;;
16193;SDS011;8204;53.582;10.080;2023-07-28T13:59:08;3.23;;;2.23;;
16193;SDS011;8204;53.582;10.080;2023-07-28T14:01:33;2.23;;;2.03;;
16193;SDS011;8204;53.582;10.080;2023-07-28T14:03:58;3.33;;;1.83;;
16193;SDS011;8204;53.582;10.080;2023-07-28T14:06:24;2.53;;;2.33;;
16193;SDS011;8204;53.582;10.080;2023-07-28T14:08:49;1.90;;;1.80;;
16193;SDS011;8204;53.582;10.080;2023-07-28T14:11:14;2.00;;;1.90;;
16193;SDS011;8204;53.582;10.080;2023-07-28T14:13:40;2.53;;;1.70;;
16193;SDS011;8204;53.582;10.080;2023-07-28T14:16:05;1.60;;;1.50;;
16193;SDS011;8204;53.582;10.080;2023-07-28T14:18:31;2.47;;;2.07;;
16193;SDS011;8204;53.582;10.080;2023-07-28T14:20:56;2.20;;;2.00;;
16193;SDS011;8204;53.582;10.080;2023-07-28T14:23:26;2.27;;;2.07;;
16193;SDS011;8204;53.582;10.080;2023-07-28T14:25:52;2.03;;;1.93;;
16193;SDS011;8204;53.582;10.080;2023-07-28T14:28:18;1.90;;;1.80;;
16193;SDS011;8204;53.582;10.080;2023-07-28T14:30:44;1.77;;;1.67;;
16193;SDS011;8204;53.582;10.080;2023-07-28T14:33:12;1.90;;;1.80;;
16193;SDS011;8204;53.582;10.080;2023-07-28T14:35:40;1.80;;;1.70;;
16193;SDS011;8204;53.582;10.080;2023-07-28T14:38:06;2.53;;;2.33;;
16193;SDS011;8204;53.582;10.080;2023-07-28T14:40:32;1.73;;;1.63;;
16193;SDS011;8204;53.582;10.080;2023-07-28T14:42:58;2.60;;;2.40;;
16193;SDS011;8204;53.582;10.080;2023-07-28T14:45:23;1.80;;;1.70;;
16193;SDS011;8204;53.582;10.080;2023-07-28T14:47:48;1.93;;;1.80;;
16193;SDS011;8204;53.582;10.080;2023-07-28T14:50:14;1.90;;;1.63;;
16193;SDS011;8204;53.582;10.080;2023-07-28T14:52:39;1.90;;;1.80;;